HPR weather

Safe Regency Platform Heliport
Zonda de Campeche, Chihuahua, Mexico

Public forecast

Using degrees Celsius for public forecast. Weather courtesy of forecast.io.

Closest aviation weather report (METAR) to Safe Regency Platform Heliport

Closest report is Ciudad del Carmen International Airport, 46.8 nm (86.8 km) SSE. Retrieved 2019/11/22 00:53 UTC (24 minutes ago):

MMCE 220053Z 03009KT 7SM SKC 26/22 A2994

Closest aviation forecast (TAF) to Safe Regency Platform Heliport

Forecast is more than 6 hours old.

Closest forecast is Ciudad del Carmen International Airport, 46.8 nm (86.8 km) SSE. Retrieved 2019/11/21 18:00 UTC (7 hours ago):

TAF MMCE 211655Z 2118/2218 12015KT P6SM SCT020 SCT080 FM212200 16015KT P6SM BKN015 BKN070 FM220400 00000KT P6SM SCT100 SCT100 FM221500 14015KT P6SM SCT080